Donnelly, ID (83615)

2:41 AM MDT on September 23, 2014 (GMT -0600)
Railroad Village | Change Station
CLOSE
Current Station
Personal Weather Station
Location: Donnelly, ID
Elevation: 4872 ft
Nearby Weather Stations

Elev 4872 ft 44.70 °N, 116.08 °W | Updated 13 seconds ago

Overcast
Overcast
49.5 °F
Feels Like 50 °F
N
0.0
Wind Variable Wind from North
Gusts 0.0 mph

Today
High -- | Low -- °F
--% Chance of Precip.
Yesterday
High -- | Low -- °F
Precip. -- in
7:32 AM 7:39 PM
Waning Crescent, 1% visible
Pressure 30.03 in
Visibility 10.0 miles
Clouds Mostly Cloudy 5500 ft
Mostly Cloudy 10000 ft
Windchill 50 °F
Dew Point 34 °F
Humidity 56%
Rainfall 0.00 in
Snow Depth Not available.
UV 0 out of 12
Pollen 8.20 out of 12
Air Quality Not available.
Flu Activity Not available.
METAR KMYL 230651Z AUTO 05004KT 10SM BKN055 BKN100 12/08 A3013 RMK AO2 SLP169 T01220078 402390106

More Conditions Fewer Conditions

Pressure 30.03 in
Visibility 10.0 miles
Clouds Mostly Cloudy 5500 ft
Mostly Cloudy 10000 ft
Windchill 50 °F
Dew Point 34 °F
Humidity 56%
Rainfall 0.00 in
Snow Depth Not available.
UV 0 out of 12
Pollen 8.20 out of 12
Air Quality Not available.
Flu Activity Not available.
METAR KMYL 230651Z AUTO 05004KT 10SM BKN055 BKN100 12/08 A3013 RMK AO2 SLP169 T01220078 402390106

More Conditions Fewer Conditions

10-Day Weather Forecast

Almanac

Astronomy

Sep. 23, 2014 Rise Set
Actual Time 7:32 AM MDT 7:39 PM MDT
Civil Twilight 7:03 AM MDT 8:08 PM MDT
Nautical Twilight 6:29 AM MDT 8:43 PM MDT
Astronomical Twilight 5:54 AM MDT 9:18 PM MDT
Moon 7:00 AM MDT 7:20 PM MDT
Length of Visible Light 13h 05m
Length of Day
12h 07m
Tomorrow will be 3m 4s shorter.
Waning Crescent, 1% of the Moon is Illuminated
Today
Waning Crescent
Sep 24
New
Oct 1
First Quarter
Oct 8
Full
Oct 15
Last Quarter

Today's Extremes

State Highs State Lows

Community

WunderPhotos

Upload Photos

1,755,644 photos uploaded!

Nearby

Snow Depth

Station Depth Elevation
Emigrant Summit 0 in 7390 ft
Mica Creek 1 in 4750 ft
Schwartz Lake 0 in 8620 ft
Camas Creek Divide 0 in 5710 ft
Morgan Creek 0 in 7600 ft

Earthquake Activity

City Distance Mag. Time & Date
No recent earthquake activity has been reported nearby.
Minimum magnitude displayed is 2.5.

Coastal Water Temperatures

Place Temperature
No Stations Reporting

Nearby Weather Stations